sensor_id;sensor_type;location;lat;lon;timestamp;P1;durP1;ratioP1;P2;durP2;ratioP2
69485;SDS011;56677;51.710;5.366;2022-10-30T06:50:13;7.25;;;4.38;;
69485;SDS011;56677;51.710;5.366;2022-10-30T06:52:39;10.57;;;4.75;;
69485;SDS011;56677;51.710;5.366;2022-10-30T06:55:04;7.68;;;3.92;;
69485;SDS011;56677;51.710;5.366;2022-10-30T06:57:29;7.60;;;4.50;;
69485;SDS011;56677;51.710;5.366;2022-10-30T06:59:54;7.53;;;4.28;;
69485;SDS011;56677;51.710;5.366;2022-10-30T07:02:20;6.88;;;3.95;;
69485;SDS011;56677;51.710;5.366;2022-10-30T07:04:45;7.97;;;3.90;;
69485;SDS011;56677;51.710;5.366;2022-10-30T07:07:10;10.07;;;4.18;;
69485;SDS011;56677;51.710;5.366;2022-10-30T07:09:35;7.63;;;4.10;;
69485;SDS011;56677;51.710;5.366;2022-10-30T07:12:01;8.13;;;4.18;;
69485;SDS011;56677;51.710;5.366;2022-10-30T07:14:26;7.45;;;4.07;;
69485;SDS011;56677;51.710;5.366;2022-10-30T07:16:53;6.68;;;3.67;;
69485;SDS011;56677;51.710;5.366;2022-10-30T07:19:18;7.68;;;4.15;;
69485;SDS011;56677;51.710;5.366;2022-10-30T07:21:43;7.03;;;3.92;;
69485;SDS011;56677;51.710;5.366;2022-10-30T07:24:08;7.68;;;4.05;;
69485;SDS011;56677;51.710;5.366;2022-10-30T07:26:33;11.73;;;4.07;;
69485;SDS011;56677;51.710;5.366;2022-10-30T07:28:58;6.60;;;3.70;;
69485;SDS011;56677;51.710;5.366;2022-10-30T07:31:23;8.67;;;4.27;;
69485;SDS011;56677;51.710;5.366;2022-10-30T07:33:48;6.90;;;4.60;;
69485;SDS011;56677;51.710;5.366;2022-10-30T07:36:14;6.95;;;3.78;;
69485;SDS011;56677;51.710;5.366;2022-10-30T07:38:39;6.68;;;3.72;;
69485;SDS011;56677;51.710;5.366;2022-10-30T07:41:04;7.20;;;4.00;;
69485;SDS011;56677;51.710;5.366;2022-10-30T07:43:29;11.57;;;4.30;;
69485;SDS011;56677;51.710;5.366;2022-10-30T07:45:54;11.00;;;4.60;;
69485;SDS011;56677;51.710;5.366;2022-10-30T07:48:19;9.65;;;4.55;;
69485;SDS011;56677;51.710;5.366;2022-10-30T07:50:44;8.73;;;4.43;;
69485;SDS011;56677;51.710;5.366;2022-10-30T07:53:09;9.00;;;4.72;;
69485;SDS011;56677;51.710;5.366;2022-10-30T07:55:35;13.05;;;4.20;;
69485;SDS011;56677;51.710;5.366;2022-10-30T07:58:00;8.68;;;4.30;;
69485;SDS011;56677;51.710;5.366;2022-10-30T08:00:25;8.27;;;3.95;;
69485;SDS011;56677;51.710;5.366;2022-10-30T08:02:50;8.10;;;4.47;;
69485;SDS011;56677;51.710;5.366;2022-10-30T08:05:16;9.43;;;4.10;;
69485;SDS011;56677;51.710;5.366;2022-10-30T08:07:41;8.73;;;4.50;;
69485;SDS011;56677;51.710;5.366;2022-10-30T08:10:06;7.70;;;4.53;;
69485;SDS011;56677;51.710;5.366;2022-10-30T08:12:32;7.53;;;3.88;;
69485;SDS011;56677;51.710;5.366;2022-10-30T08:14:57;8.33;;;4.00;;
69485;SDS011;56677;51.710;5.366;2022-10-30T08:17:22;6.30;;;3.83;;
69485;SDS011;56677;51.710;5.366;2022-10-30T08:19:47;8.40;;;4.27;;
69485;SDS011;56677;51.710;5.366;2022-10-30T08:22:13;6.88;;;3.85;;
69485;SDS011;56677;51.710;5.366;2022-10-30T08:24:38;7.83;;;4.20;;
69485;SDS011;56677;51.710;5.366;2022-10-30T08:27:03;7.70;;;3.90;;
69485;SDS011;56677;51.710;5.366;2022-10-30T08:29:29;6.97;;;3.80;;
69485;SDS011;56677;51.710;5.366;2022-10-30T08:31:54;8.23;;;4.50;;
69485;SDS011;56677;51.710;5.366;2022-10-30T08:34:19;7.60;;;4.03;;
69485;SDS011;56677;51.710;5.366;2022-10-30T08:36:46;7.43;;;4.43;;
69485;SDS011;56677;51.710;5.366;2022-10-30T08:39:11;7.57;;;4.32;;
69485;SDS011;56677;51.710;5.366;2022-10-30T08:41:37;7.13;;;4.15;;
69485;SDS011;56677;51.710;5.366;2022-10-30T08:44:02;8.55;;;3.83;;
69485;SDS011;56677;51.710;5.366;2022-10-30T08:46:27;7.97;;;3.97;;
69485;SDS011;56677;51.710;5.366;2022-10-30T08:48:52;8.60;;;4.18;;
69485;SDS011;56677;51.710;5.366;2022-10-30T08:51:17;7.95;;;4.28;;
69485;SDS011;56677;51.710;5.366;2022-10-30T08:53:42;7.17;;;4.30;;
69485;SDS011;56677;51.710;5.366;2022-10-30T08:56:07;6.65;;;3.78;;
69485;SDS011;56677;51.710;5.366;2022-10-30T08:58:32;7.60;;;3.92;;
69485;SDS011;56677;51.710;5.366;2022-10-30T09:00:57;7.75;;;4.40;;
69485;SDS011;56677;51.710;5.366;2022-10-30T09:03:23;8.53;;;4.17;;
69485;SDS011;56677;51.710;5.366;2022-10-30T09:05:48;6.50;;;4.50;;
69485;SDS011;56677;51.710;5.366;2022-10-30T09:08:13;7.53;;;4.10;;
69485;SDS011;56677;51.710;5.366;2022-10-30T09:10:38;8.23;;;4.18;;
69485;SDS011;56677;51.710;5.366;2022-10-30T09:13:03;7.32;;;4.15;;
69485;SDS011;56677;51.710;5.366;2022-10-30T09:15:28;7.22;;;4.05;;
69485;SDS011;56677;51.710;5.366;2022-10-30T09:17:58;6.65;;;3.83;;
69485;SDS011;56677;51.710;5.366;2022-10-30T09:20:23;8.20;;;3.72;;
69485;SDS011;56677;51.710;5.366;2022-10-30T09:22:48;7.80;;;3.92;;
69485;SDS011;56677;51.710;5.366;2022-10-30T09:25:13;8.17;;;4.67;;
69485;SDS011;56677;51.710;5.366;2022-10-30T09:27:38;7.30;;;3.78;;
69485;SDS011;56677;51.710;5.366;2022-10-30T09:30:04;7.97;;;4.07;;
69485;SDS011;56677;51.710;5.366;2022-10-30T09:32:29;6.63;;;4.03;;
69485;SDS011;56677;51.710;5.366;2022-10-30T09:34:54;7.87;;;3.67;;
69485;SDS011;56677;51.710;5.366;2022-10-30T09:37:19;7.00;;;4.05;;
69485;SDS011;56677;51.710;5.366;2022-10-30T09:39:44;7.33;;;4.30;;
69485;SDS011;56677;51.710;5.366;2022-10-30T09:49:44;8.40;;;4.25;;
69485;SDS011;56677;51.710;5.366;2022-10-30T09:54:51;6.37;;;3.80;;
69485;SDS011;56677;51.710;5.366;2022-10-30T10:00:13;6.93;;;4.28;;
69485;SDS011;56677;51.710;5.366;2022-10-30T10:07:40;7.40;;;4.23;;
69485;SDS011;56677;51.710;5.366;2022-10-30T10:10:09;7.85;;;4.22;;
69485;SDS011;56677;51.710;5.366;2022-10-30T10:12:53;7.35;;;4.30;;
69485;SDS011;56677;51.710;5.366;2022-10-30T10:17:44;6.55;;;4.22;;
69485;SDS011;56677;51.710;5.366;2022-10-30T10:20:14;6.65;;;3.83;;
69485;SDS011;56677;51.710;5.366;2022-10-30T10:22:42;8.23;;;3.97;;
69485;SDS011;56677;51.710;5.366;2022-10-30T10:25:10;7.20;;;4.35;;
69485;SDS011;56677;51.710;5.366;2022-10-30T10:27:51;6.32;;;4.32;;
69485;SDS011;56677;51.710;5.366;2022-10-30T10:30:20;6.70;;;3.80;;
69485;SDS011;56677;51.710;5.366;2022-10-30T10:35:28;7.77;;;4.03;;
69485;SDS011;56677;51.710;5.366;2022-10-30T10:38:05;7.30;;;3.88;;
69485;SDS011;56677;51.710;5.366;2022-10-30T10:40:41;7.93;;;4.03;;
69485;SDS011;56677;51.710;5.366;2022-10-30T10:50:55;7.85;;;3.97;;
69485;SDS011;56677;51.710;5.366;2022-10-30T10:56:06;7.78;;;4.00;;
69485;SDS011;56677;51.710;5.366;2022-10-30T10:58:48;7.23;;;4.13;;
69485;SDS011;56677;51.710;5.366;2022-10-30T11:01:22;7.80;;;4.15;;
69485;SDS011;56677;51.710;5.366;2022-10-30T11:03:52;6.90;;;4.10;;
69485;SDS011;56677;51.710;5.366;2022-10-30T11:06:23;7.82;;;4.28;;
69485;SDS011;56677;51.710;5.366;2022-10-30T11:08:51;7.03;;;4.10;;
69485;SDS011;56677;51.710;5.366;2022-10-30T11:11:17;6.87;;;3.37;;
69485;SDS011;56677;51.710;5.366;2022-10-30T11:13:42;6.85;;;4.32;;
69485;SDS011;56677;51.710;5.366;2022-10-30T11:16:24;7.72;;;3.95;;
69485;SDS011;56677;51.710;5.366;2022-10-30T11:18:54;6.67;;;3.97;;
69485;SDS011;56677;51.710;5.366;2022-10-30T11:21:21;7.88;;;3.80;;
69485;SDS011;56677;51.710;5.366;2022-10-30T11:23:47;6.55;;;3.60;;
69485;SDS011;56677;51.710;5.366;2022-10-30T11:28:42;7.30;;;3.45;;
69485;SDS011;56677;51.710;5.366;2022-10-30T11:33:43;6.68;;;3.90;;
69485;SDS011;56677;51.710;5.366;2022-10-30T11:36:08;6.90;;;4.00;;
69485;SDS011;56677;51.710;5.366;2022-10-30T11:38:33;6.53;;;4.20;;
69485;SDS011;56677;51.710;5.366;2022-10-30T11:40:59;6.13;;;3.58;;
69485;SDS011;56677;51.710;5.366;2022-10-30T11:43:25;9.90;;;4.05;;
69485;SDS011;56677;51.710;5.366;2022-10-30T11:45:50;6.17;;;3.60;;
69485;SDS011;56677;51.710;5.366;2022-10-30T11:48:20;7.00;;;4.53;;
69485;SDS011;56677;51.710;5.366;2022-10-30T11:50:46;7.20;;;4.05;;
69485;SDS011;56677;51.710;5.366;2022-10-30T11:53:16;8.00;;;4.00;;
69485;SDS011;56677;51.710;5.366;2022-10-30T11:55:44;8.75;;;4.03;;
69485;SDS011;56677;51.710;5.366;2022-10-30T11:58:16;7.38;;;3.88;;
69485;SDS011;56677;51.710;5.366;2022-10-30T12:00:44;7.35;;;3.85;;
69485;SDS011;56677;51.710;5.366;2022-10-30T12:03:25;7.70;;;3.95;;
69485;SDS011;56677;51.710;5.366;2022-10-30T12:05:51;7.00;;;3.75;;
69485;SDS011;56677;51.710;5.366;2022-10-30T12:08:30;5.47;;;3.50;;
69485;SDS011;56677;51.710;5.366;2022-10-30T12:10:56;7.95;;;4.20;;
69485;SDS011;56677;51.710;5.366;2022-10-30T12:13:22;8.93;;;3.45;;
69485;SDS011;56677;51.710;5.366;2022-10-30T12:15:48;7.45;;;3.95;;
69485;SDS011;56677;51.710;5.366;2022-10-30T12:18:24;7.33;;;3.93;;
69485;SDS011;56677;51.710;5.366;2022-10-30T12:20:51;7.18;;;3.63;;
69485;SDS011;56677;51.710;5.366;2022-10-30T12:23:21;10.20;;;4.32;;
69485;SDS011;56677;51.710;5.366;2022-10-30T12:25:47;10.20;;;4.28;;
69485;SDS011;56677;51.710;5.366;2022-10-30T12:28:13;8.70;;;3.63;;
69485;SDS011;56677;51.710;5.366;2022-10-30T12:30:43;8.80;;;4.43;;
69485;SDS011;56677;51.710;5.366;2022-10-30T12:33:14;7.63;;;3.80;;
69485;SDS011;56677;51.710;5.366;2022-10-30T12:38:12;8.38;;;4.13;;
69485;SDS011;56677;51.710;5.366;2022-10-30T12:40:43;11.15;;;4.32;;
69485;SDS011;56677;51.710;5.366;2022-10-30T12:43:21;10.03;;;3.73;;
69485;SDS011;56677;51.710;5.366;2022-10-30T12:45:48;9.30;;;4.15;;
69485;SDS011;56677;51.710;5.366;2022-10-30T12:48:16;7.28;;;3.63;;
69485;SDS011;56677;51.710;5.366;2022-10-30T12:50:48;8.50;;;3.78;;
69485;SDS011;56677;51.710;5.366;2022-10-30T12:55:48;8.03;;;3.80;;
69485;SDS011;56677;51.710;5.366;2022-10-30T13:00:59;10.48;;;4.00;;
69485;SDS011;56677;51.710;5.366;2022-10-30T13:03:29;10.57;;;3.22;;
69485;SDS011;56677;51.710;5.366;2022-10-30T13:06:16;7.93;;;3.47;;
69485;SDS011;56677;51.710;5.366;2022-10-30T13:08:43;6.90;;;3.63;;
69485;SDS011;56677;51.710;5.366;2022-10-30T13:11:16;7.45;;;3.58;;
69485;SDS011;56677;51.710;5.366;2022-10-30T13:13:47;7.70;;;3.80;;
69485;SDS011;56677;51.710;5.366;2022-10-30T13:16:18;5.97;;;3.30;;
69485;SDS011;56677;51.710;5.366;2022-10-30T13:18:44;8.93;;;4.07;;
69485;SDS011;56677;51.710;5.366;2022-10-30T13:23:54;7.22;;;3.97;;
69485;SDS011;56677;51.710;5.366;2022-10-30T13:37:48;9.60;;;3.93;;
69485;SDS011;56677;51.710;5.366;2022-10-30T13:43:04;7.60;;;3.53;;
69485;SDS011;56677;51.710;5.366;2022-10-30T13:53:11;6.80;;;3.45;;
69485;SDS011;56677;51.710;5.366;2022-10-30T13:55:38;9.30;;;3.67;;
69485;SDS011;56677;51.710;5.366;2022-10-30T14:00:48;6.38;;;3.50;;
69485;SDS011;56677;51.710;5.366;2022-10-30T14:06:01;5.43;;;3.55;;
69485;SDS011;56677;51.710;5.366;2022-10-30T14:10:57;5.85;;;3.05;;
69485;SDS011;56677;51.710;5.366;2022-10-30T14:13:23;7.05;;;3.72;;
69485;SDS011;56677;51.710;5.366;2022-10-30T14:15:48;9.67;;;3.77;;
69485;SDS011;56677;51.710;5.366;2022-10-30T14:18:22;7.38;;;3.97;;
69485;SDS011;56677;51.710;5.366;2022-10-30T14:20:51;6.55;;;3.22;;
69485;SDS011;56677;51.710;5.366;2022-10-30T14:28:34;5.70;;;3.77;;
69485;SDS011;56677;51.710;5.366;2022-10-30T14:31:01;7.05;;;3.42;;
69485;SDS011;56677;51.710;5.366;2022-10-30T14:33:32;6.80;;;3.65;;
69485;SDS011;56677;51.710;5.366;2022-10-30T14:43:56;5.50;;;3.13;;
69485;SDS011;56677;51.710;5.366;2022-10-30T14:46:37;6.05;;;3.70;;
69485;SDS011;56677;51.710;5.366;2022-10-30T14:49:14;7.57;;;3.75;;
69485;SDS011;56677;51.710;5.366;2022-10-30T14:51:50;7.20;;;3.38;;
69485;SDS011;56677;51.710;5.366;2022-10-30T14:56:47;8.48;;;3.38;;
69485;SDS011;56677;51.710;5.366;2022-10-30T15:04:30;6.03;;;3.30;;
69485;SDS011;56677;51.710;5.366;2022-10-30T15:07:06;5.93;;;3.30;;
69485;SDS011;56677;51.710;5.366;2022-10-30T15:15:02;8.05;;;3.55;;
69485;SDS011;56677;51.710;5.366;2022-10-30T15:19:57;7.68;;;3.80;;
69485;SDS011;56677;51.710;5.366;2022-10-30T15:22:23;6.80;;;3.77;;
69485;SDS011;56677;51.710;5.366;2022-10-30T15:24:50;6.55;;;3.65;;
69485;SDS011;56677;51.710;5.366;2022-10-30T15:27:16;6.97;;;3.50;;
69485;SDS011;56677;51.710;5.366;2022-10-30T15:29:42;5.60;;;3.30;;
69485;SDS011;56677;51.710;5.366;2022-10-30T15:32:18;5.82;;;3.42;;
69485;SDS011;56677;51.710;5.366;2022-10-30T15:35:00;5.68;;;3.33;;
69485;SDS011;56677;51.710;5.366;2022-10-30T15:37:25;5.70;;;3.27;;
69485;SDS011;56677;51.710;5.366;2022-10-30T15:42:34;7.07;;;3.17;;
69485;SDS011;56677;51.710;5.366;2022-10-30T15:45:00;7.03;;;3.63;;
69485;SDS011;56677;51.710;5.366;2022-10-30T15:47:26;6.30;;;3.88;;
69485;SDS011;56677;51.710;5.366;2022-10-30T15:49:52;6.43;;;3.50;;
69485;SDS011;56677;51.710;5.366;2022-10-30T15:52:25;6.90;;;3.63;;
69485;SDS011;56677;51.710;5.366;2022-10-30T15:54:52;5.05;;;3.40;;
69485;SDS011;56677;51.710;5.366;2022-10-30T15:57:26;7.40;;;3.00;;
69485;SDS011;56677;51.710;5.366;2022-10-30T15:59:54;6.70;;;3.40;;
69485;SDS011;56677;51.710;5.366;2022-10-30T16:02:21;4.95;;;2.85;;
69485;SDS011;56677;51.710;5.366;2022-10-30T16:04:47;5.75;;;3.08;;
69485;SDS011;56677;51.710;5.366;2022-10-30T16:07:19;6.00;;;3.47;;
69485;SDS011;56677;51.710;5.366;2022-10-30T16:09:54;5.50;;;3.20;;
69485;SDS011;56677;51.710;5.366;2022-10-30T16:12:19;6.68;;;3.22;;
69485;SDS011;56677;51.710;5.366;2022-10-30T16:14:44;5.70;;;3.30;;
69485;SDS011;56677;51.710;5.366;2022-10-30T16:17:09;6.82;;;3.38;;
69485;SDS011;56677;51.710;5.366;2022-10-30T16:19:39;7.47;;;3.80;;
69485;SDS011;56677;51.710;5.366;2022-10-30T16:22:04;6.03;;;3.40;;
69485;SDS011;56677;51.710;5.366;2022-10-30T16:24:33;5.83;;;3.50;;
69485;SDS011;56677;51.710;5.366;2022-10-30T16:29:26;5.82;;;3.30;;
69485;SDS011;56677;51.710;5.366;2022-10-30T16:31:52;6.43;;;3.10;;
69485;SDS011;56677;51.710;5.366;2022-10-30T16:34:27;5.80;;;3.17;;
69485;SDS011;56677;51.710;5.366;2022-10-30T16:36:54;5.80;;;3.28;;
69485;SDS011;56677;51.710;5.366;2022-10-30T16:39:20;8.60;;;3.00;;
69485;SDS011;56677;51.710;5.366;2022-10-30T16:41:45;7.37;;;2.87;;
69485;SDS011;56677;51.710;5.366;2022-10-30T16:46:40;6.70;;;3.13;;
69485;SDS011;56677;51.710;5.366;2022-10-30T16:49:11;6.78;;;2.72;;
69485;SDS011;56677;51.710;5.366;2022-10-30T16:51:38;8.07;;;3.10;;
69485;SDS011;56677;51.710;5.366;2022-10-30T16:54:03;8.20;;;2.50;;
69485;SDS011;56677;51.710;5.366;2022-10-30T16:56:29;8.13;;;2.87;;
69485;SDS011;56677;51.710;5.366;2022-10-30T16:58:56;8.25;;;2.78;;
69485;SDS011;56677;51.710;5.366;2022-10-30T17:01:22;4.80;;;2.55;;
69485;SDS011;56677;51.710;5.366;2022-10-30T17:03:48;5.57;;;3.00;;
69485;SDS011;56677;51.710;5.366;2022-10-30T17:06:27;6.90;;;2.73;;
69485;SDS011;56677;51.710;5.366;2022-10-30T17:08:53;6.45;;;3.63;;
69485;SDS011;56677;51.710;5.366;2022-10-30T17:11:19;5.93;;;3.47;;
69485;SDS011;56677;51.710;5.366;2022-10-30T17:16:22;9.95;;;2.95;;
69485;SDS011;56677;51.710;5.366;2022-10-30T17:18:48;7.20;;;2.70;;
69485;SDS011;56677;51.710;5.366;2022-10-30T17:21:15;7.05;;;3.05;;
69485;SDS011;56677;51.710;5.366;2022-10-30T17:23:47;4.70;;;2.57;;
69485;SDS011;56677;51.710;5.366;2022-10-30T17:26:13;5.15;;;2.92;;
69485;SDS011;56677;51.710;5.366;2022-10-30T17:28:39;6.60;;;3.33;;
69485;SDS011;56677;51.710;5.366;2022-10-30T17:31:48;7.57;;;2.70;;
69485;SDS011;56677;51.710;5.366;2022-10-30T17:34:04;8.25;;;3.13;;
69485;SDS011;56677;51.710;5.366;2022-10-30T17:36:29;7.82;;;3.17;;
69485;SDS011;56677;51.710;5.366;2022-10-30T17:38:54;6.97;;;3.30;;
69485;SDS011;56677;51.710;5.366;2022-10-30T17:41:19;10.43;;;3.13;;
69485;SDS011;56677;51.710;5.366;2022-10-30T17:43:48;5.85;;;3.10;;
69485;SDS011;56677;51.710;5.366;2022-10-30T17:46:14;5.50;;;2.67;;
69485;SDS011;56677;51.710;5.366;2022-10-30T17:48:39;7.95;;;3.13;;
69485;SDS011;56677;51.710;5.366;2022-10-30T17:51:04;5.65;;;2.80;;
69485;SDS011;56677;51.710;5.366;2022-10-30T17:53:30;5.28;;;2.38;;
69485;SDS011;56677;51.710;5.366;2022-10-30T17:55:58;6.97;;;2.97;;
69485;SDS011;56677;51.710;5.366;2022-10-30T17:58:23;6.72;;;3.08;;
69485;SDS011;56677;51.710;5.366;2022-10-30T18:00:48;5.88;;;2.88;;
69485;SDS011;56677;51.710;5.366;2022-10-30T18:03:13;5.65;;;2.90;;
69485;SDS011;56677;51.710;5.366;2022-10-30T18:05:38;8.67;;;3.47;;
69485;SDS011;56677;51.710;5.366;2022-10-30T18:08:04;7.07;;;2.75;;
69485;SDS011;56677;51.710;5.366;2022-10-30T18:10:30;4.88;;;2.30;;
69485;SDS011;56677;51.710;5.366;2022-10-30T18:12:55;8.90;;;2.80;;
69485;SDS011;56677;51.710;5.366;2022-10-30T18:17:51;5.53;;;2.60;;
69485;SDS011;56677;51.710;5.366;2022-10-30T18:20:16;6.67;;;2.63;;
69485;SDS011;56677;51.710;5.366;2022-10-30T18:22:41;6.18;;;3.10;;
69485;SDS011;56677;51.710;5.366;2022-10-30T18:25:14;6.93;;;2.78;;
69485;SDS011;56677;51.710;5.366;2022-10-30T18:27:40;6.67;;;3.13;;
69485;SDS011;56677;51.710;5.366;2022-10-30T18:30:05;5.95;;;2.75;;
69485;SDS011;56677;51.710;5.366;2022-10-30T18:32:31;6.20;;;2.70;;
69485;SDS011;56677;51.710;5.366;2022-10-30T18:34:56;4.87;;;2.83;;
69485;SDS011;56677;51.710;5.366;2022-10-30T18:37:21;7.90;;;3.13;;
69485;SDS011;56677;51.710;5.366;2022-10-30T18:39:46;5.95;;;2.70;;
69485;SDS011;56677;51.710;5.366;2022-10-30T18:42:11;5.93;;;3.00;;
69485;SDS011;56677;51.710;5.366;2022-10-30T18:44:36;6.75;;;2.63;;
69485;SDS011;56677;51.710;5.366;2022-10-30T18:47:03;7.82;;;2.70;;
69485;SDS011;56677;51.710;5.366;2022-10-30T18:49:29;5.40;;;2.95;;
69485;SDS011;56677;51.710;5.366;2022-10-30T18:51:54;4.85;;;2.67;;
69485;SDS011;56677;51.710;5.366;2022-10-30T18:54:19;6.30;;;2.60;;
69485;SDS011;56677;51.710;5.366;2022-10-30T18:56:44;6.00;;;2.50;;
69485;SDS011;56677;51.710;5.366;2022-10-30T18:59:09;5.63;;;2.70;;
69485;SDS011;56677;51.710;5.366;2022-10-30T19:01:34;5.72;;;2.75;;
69485;SDS011;56677;51.710;5.366;2022-10-30T19:04:00;5.68;;;2.97;;
69485;SDS011;56677;51.710;5.366;2022-10-30T19:06:25;6.00;;;2.73;;
69485;SDS011;56677;51.710;5.366;2022-10-30T19:08:50;4.80;;;2.83;;
69485;SDS011;56677;51.710;5.366;2022-10-30T19:11:16;6.40;;;2.97;;
69485;SDS011;56677;51.710;5.366;2022-10-30T19:13:41;6.25;;;3.10;;
69485;SDS011;56677;51.710;5.366;2022-10-30T19:16:14;6.77;;;2.73;;
69485;SDS011;56677;51.710;5.366;2022-10-30T19:18:40;6.53;;;2.95;;
69485;SDS011;56677;51.710;5.366;2022-10-30T19:21:05;6.20;;;2.80;;
69485;SDS011;56677;51.710;5.366;2022-10-30T19:23:30;5.83;;;2.60;;
69485;SDS011;56677;51.710;5.366;2022-10-30T19:25:55;8.68;;;3.15;;
69485;SDS011;56677;51.710;5.366;2022-10-30T19:28:20;6.28;;;3.03;;
69485;SDS011;56677;51.710;5.366;2022-10-30T19:30:46;7.63;;;2.95;;
69485;SDS011;56677;51.710;5.366;2022-10-30T19:33:11;8.73;;;3.42;;
69485;SDS011;56677;51.710;5.366;2022-10-30T19:35:36;6.22;;;2.70;;
69485;SDS011;56677;51.710;5.366;2022-10-30T19:38:01;6.05;;;2.92;;
69485;SDS011;56677;51.710;5.366;2022-10-30T19:40:33;8.35;;;3.10;;
69485;SDS011;56677;51.710;5.366;2022-10-30T19:42:59;6.50;;;3.17;;
69485;SDS011;56677;51.710;5.366;2022-10-30T19:45:25;5.75;;;3.00;;
69485;SDS011;56677;51.710;5.366;2022-10-30T19:47:52;6.20;;;2.63;;
69485;SDS011;56677;51.710;5.366;2022-10-30T19:50:22;6.85;;;3.05;;
69485;SDS011;56677;51.710;5.366;2022-10-30T19:52:48;6.75;;;3.08;;
69485;SDS011;56677;51.710;5.366;2022-10-30T19:55:13;5.75;;;2.85;;
69485;SDS011;56677;51.710;5.366;2022-10-30T19:57:38;6.27;;;2.77;;
69485;SDS011;56677;51.710;5.366;2022-10-30T20:02:41;7.75;;;3.15;;
69485;SDS011;56677;51.710;5.366;2022-10-30T20:05:08;5.87;;;2.53;;
69485;SDS011;56677;51.710;5.366;2022-10-30T20:07:34;5.53;;;2.33;;
69485;SDS011;56677;51.710;5.366;2022-10-30T20:09:59;5.05;;;2.58;;
69485;SDS011;56677;51.710;5.366;2022-10-30T20:12:24;9.23;;;3.08;;
69485;SDS011;56677;51.710;5.366;2022-10-30T20:14:49;8.48;;;2.97;;
69485;SDS011;56677;51.710;5.366;2022-10-30T20:17:14;5.70;;;2.72;;
69485;SDS011;56677;51.710;5.366;2022-10-30T20:19:39;5.20;;;2.47;;
69485;SDS011;56677;51.710;5.366;2022-10-30T20:22:05;7.83;;;3.07;;
69485;SDS011;56677;51.710;5.366;2022-10-30T20:24:30;7.45;;;2.70;;
69485;SDS011;56677;51.710;5.366;2022-10-30T20:26:55;4.45;;;2.90;;
69485;SDS011;56677;51.710;5.366;2022-10-30T20:29:20;7.17;;;2.87;;
69485;SDS011;56677;51.710;5.366;2022-10-30T20:31:45;9.52;;;2.90;;
69485;SDS011;56677;51.710;5.366;2022-10-30T20:34:10;6.47;;;2.47;;
69485;SDS011;56677;51.710;5.366;2022-10-30T20:36:35;6.20;;;2.90;;
69485;SDS011;56677;51.710;5.366;2022-10-30T20:39:00;4.28;;;2.45;;
69485;SDS011;56677;51.710;5.366;2022-10-30T20:41:27;6.03;;;2.80;;
69485;SDS011;56677;51.710;5.366;2022-10-30T20:43:53;6.57;;;3.00;;
69485;SDS011;56677;51.710;5.366;2022-10-30T20:46:18;7.55;;;3.10;;
69485;SDS011;56677;51.710;5.366;2022-10-30T20:48:43;5.70;;;2.53;;
69485;SDS011;56677;51.710;5.366;2022-10-30T20:51:09;7.50;;;2.70;;
69485;SDS011;56677;51.710;5.366;2022-10-30T20:53:35;7.57;;;2.37;;
69485;SDS011;56677;51.710;5.366;2022-10-30T20:56:00;6.25;;;2.53;;
69485;SDS011;56677;51.710;5.366;2022-10-30T20:58:25;4.73;;;2.67;;
69485;SDS011;56677;51.710;5.366;2022-10-30T21:00:52;6.10;;;2.72;;
69485;SDS011;56677;51.710;5.366;2022-10-30T21:03:17;4.88;;;2.80;;
69485;SDS011;56677;51.710;5.366;2022-10-30T21:05:43;4.65;;;2.55;;
69485;SDS011;56677;51.710;5.366;2022-10-30T21:08:08;6.53;;;2.63;;
69485;SDS011;56677;51.710;5.366;2022-10-30T21:10:35;6.50;;;2.78;;
69485;SDS011;56677;51.710;5.366;2022-10-30T21:13:00;7.22;;;3.17;;
69485;SDS011;56677;51.710;5.366;2022-10-30T21:15:25;5.65;;;2.58;;
69485;SDS011;56677;51.710;5.366;2022-10-30T21:17:51;7.67;;;2.40;;
69485;SDS011;56677;51.710;5.366;2022-10-30T21:20:16;5.13;;;2.65;;
69485;SDS011;56677;51.710;5.366;2022-10-30T21:22:41;6.60;;;3.03;;
69485;SDS011;56677;51.710;5.366;2022-10-30T21:25:06;6.75;;;2.70;;
69485;SDS011;56677;51.710;5.366;2022-10-30T21:27:31;5.35;;;2.60;;
69485;SDS011;56677;51.710;5.366;2022-10-30T21:29:56;5.90;;;2.60;;
69485;SDS011;56677;51.710;5.366;2022-10-30T21:32:22;5.82;;;2.72;;
69485;SDS011;56677;51.710;5.366;2022-10-30T21:34:47;5.20;;;2.30;;
69485;SDS011;56677;51.710;5.366;2022-10-30T21:37:12;5.67;;;2.63;;
69485;SDS011;56677;51.710;5.366;2022-10-30T21:39:37;6.37;;;2.97;;
69485;SDS011;56677;51.710;5.366;2022-10-30T21:42:02;5.55;;;2.40;;
69485;SDS011;56677;51.710;5.366;2022-10-30T21:44:27;6.83;;;2.67;;
69485;SDS011;56677;51.710;5.366;2022-10-30T21:46:52;5.28;;;2.90;;
69485;SDS011;56677;51.710;5.366;2022-10-30T21:49:18;4.93;;;2.90;;
69485;SDS011;56677;51.710;5.366;2022-10-30T21:51:43;5.30;;;2.80;;
69485;SDS011;56677;51.710;5.366;2022-10-30T21:54:08;7.43;;;2.63;;
69485;SDS011;56677;51.710;5.366;2022-10-30T21:56:33;4.90;;;2.08;;
69485;SDS011;56677;51.710;5.366;2022-10-30T21:58:58;5.05;;;2.92;;
69485;SDS011;56677;51.710;5.366;2022-10-30T22:01:25;5.47;;;2.55;;
69485;SDS011;56677;51.710;5.366;2022-10-30T22:03:50;5.93;;;2.42;;
69485;SDS011;56677;51.710;5.366;2022-10-30T22:06:16;5.00;;;2.60;;
69485;SDS011;56677;51.710;5.366;2022-10-30T22:08:44;6.30;;;2.80;;
69485;SDS011;56677;51.710;5.366;2022-10-30T22:11:10;5.13;;;2.25;;
69485;SDS011;56677;51.710;5.366;2022-10-30T22:13:35;7.83;;;2.50;;
